createdAt,value
2022-08-09T00:00:29.195Z,13.91
2022-08-09T00:02:56.983Z,13.89
2022-08-09T00:06:19.789Z,13.88
2022-08-09T00:08:32.500Z,13.85
2022-08-09T00:11:00.726Z,13.73
2022-08-09T00:13:38.461Z,13.55
2022-08-09T00:16:07.829Z,13.56
2022-08-09T00:18:39.635Z,13.63
2022-08-09T00:21:08.725Z,13.61
2022-08-09T00:23:55.460Z,13.59
2022-08-09T00:26:32.740Z,13.57
2022-08-09T00:29:00.648Z,13.37
2022-08-09T00:31:58.362Z,13.51
2022-08-09T00:34:19.559Z,13.54
2022-08-09T00:36:48.822Z,13.51
2022-08-09T00:39:59.944Z,13.48
2022-08-09T00:44:16.791Z,13.51
2022-08-09T00:44:50.541Z,13.45
2022-08-09T00:47:17.284Z,13.40
2022-08-09T00:49:54.461Z,13.50
2022-08-09T00:52:28.055Z,13.42
2022-08-09T00:55:01.448Z,13.44
2022-08-09T00:57:34.389Z,13.33
2022-08-09T01:00:21.180Z,13.05
2022-08-09T01:03:07.702Z,13.13
2022-08-09T01:05:46.386Z,13.18
2022-08-09T01:08:27.141Z,13.15
2022-08-09T01:11:09.806Z,13.09
2022-08-09T01:14:00.106Z,12.90
2022-08-09T01:16:36.973Z,13.00
2022-08-09T01:19:39.607Z,12.86
2022-08-09T01:22:48.222Z,13.01
2022-08-09T01:25:30.380Z,12.99
2022-08-09T01:27:59.768Z,12.97
2022-08-09T01:30:35.790Z,12.95
2022-08-09T01:33:18.283Z,12.72
2022-08-09T01:36:03.245Z,12.75
2022-08-09T01:38:34.646Z,12.82
2022-08-09T01:41:12.048Z,12.78
2022-08-09T01:43:52.066Z,12.95
2022-08-09T01:46:32.483Z,12.97
2022-08-09T01:49:09.473Z,12.91
2022-08-09T01:51:44.369Z,12.92
2022-08-09T01:54:13.968Z,12.90
2022-08-09T01:56:47.115Z,12.89
2022-08-09T01:59:21.582Z,12.82
2022-08-09T02:02:00.184Z,12.85
2022-08-09T02:04:29.883Z,12.69
2022-08-09T02:08:00.124Z,12.72
2022-08-09T02:10:09.536Z,12.57
2022-08-09T02:12:37.809Z,12.30
2022-08-09T02:15:15.475Z,12.44
2022-08-09T02:18:00.594Z,12.57
2022-08-09T02:20:35.390Z,12.57
2022-08-09T02:23:12.101Z,12.61
2022-08-09T02:25:42.626Z,12.68
2022-08-09T02:28:20.688Z,12.63
2022-08-09T02:31:22.153Z,12.66
2022-08-09T02:34:06.480Z,12.35
2022-08-09T02:36:42.075Z,12.39
2022-08-09T02:39:39.897Z,12.47
2022-08-09T02:42:20.007Z,11.91
2022-08-09T02:44:59.098Z,12.15
2022-08-09T02:47:33.960Z,11.98
2022-08-09T02:50:31.493Z,12.10
2022-08-09T02:53:02.750Z,12.07
2022-08-09T02:55:46.747Z,12.21
2022-08-09T02:58:35.270Z,12.24
2022-08-09T03:01:08.291Z,12.03
2022-08-09T03:04:12.799Z,12.14
2022-08-09T03:06:28.030Z,12.07
2022-08-09T03:08:57.322Z,12.18
2022-08-09T03:11:30.056Z,12.07
2022-08-09T03:14:13.495Z,12.20
2022-08-09T03:16:47.511Z,12.16
2022-08-09T03:19:59.617Z,12.09
2022-08-09T03:22:11.773Z,12.03
2022-08-09T03:24:42.589Z,12.02
2022-08-09T03:27:21.557Z,12.13
2022-08-09T03:29:57.975Z,12.20
2022-08-09T03:32:37.177Z,12.28
2022-08-09T03:35:14.829Z,12.10
2022-08-09T03:37:54.389Z,12.27
2022-08-09T03:40:21.964Z,12.30
2022-08-09T03:42:51.655Z,12.34
2022-08-09T03:46:05.090Z,12.08
2022-08-09T03:48:05.618Z,12.19
2022-08-09T03:50:34.739Z,12.11
2022-08-09T03:53:05.183Z,12.20
2022-08-09T03:55:35.961Z,12.31
2022-08-09T03:58:09.933Z,12.38
2022-08-09T04:00:47.907Z,12.49
2022-08-09T04:03:24.561Z,12.39
2022-08-09T04:06:04.404Z,12.38
2022-08-09T04:08:32.355Z,12.67
2022-08-09T04:11:01.497Z,12.80
2022-08-09T04:14:37.261Z,12.78
2022-08-09T04:16:19.423Z,12.67
2022-08-09T04:18:47.116Z,12.85
2022-08-09T04:21:16.030Z,13.03
2022-08-09T04:23:54.530Z,12.95
2022-08-09T04:26:37.930Z,13.00
2022-08-09T04:29:10.807Z,13.12
2022-08-09T04:31:46.908Z,13.22
2022-08-09T04:34:14.577Z,13.32
2022-08-09T04:36:50.334Z,13.37
2022-08-09T04:39:17.308Z,13.44
2022-08-09T04:41:46.588Z,13.51
2022-08-09T04:44:14.706Z,13.65
2022-08-09T04:46:58.078Z,13.76
2022-08-09T04:49:53.846Z,13.91
2022-08-09T04:52:26.352Z,14.02
2022-08-09T04:54:56.572Z,14.18
2022-08-09T04:57:24.342Z,15.08
2022-08-09T04:59:54.143Z,17.40
2022-08-09T05:02:21.456Z,19.18
2022-08-09T05:04:48.714Z,20.27
2022-08-09T05:07:22.246Z,22.02
2022-08-09T05:09:50.392Z,22.10
2022-08-09T05:12:18.943Z,23.48
2022-08-09T05:14:52.449Z,25.01
2022-08-09T05:18:39.623Z,26.32
2022-08-09T05:20:06.974Z,25.46
2022-08-09T05:23:54.404Z,26.49
2022-08-09T05:25:21.692Z,27.29
2022-08-09T05:27:52.144Z,27.06
2022-08-09T05:30:29.927Z,26.59
2022-08-09T05:33:05.504Z,27.23
2022-08-09T05:35:45.879Z,27.00
2022-08-09T05:38:23.313Z,28.05
2022-08-09T05:40:55.580Z,29.62
2022-08-09T05:43:24.049Z,30.87
2022-08-09T05:45:57.964Z,31.30
2022-08-09T05:48:27.863Z,31.14
2022-08-09T05:51:16.824Z,31.40
2022-08-09T05:53:57.891Z,31.74
2022-08-09T05:56:26.155Z,31.42
2022-08-09T05:58:58.758Z,31.95
2022-08-09T06:01:33.772Z,32.34
2022-08-09T06:04:09.673Z,33.43
2022-08-09T06:06:49.687Z,31.93
2022-08-09T06:09:53.973Z,33.07
2022-08-09T06:12:17.594Z,33.08
2022-08-09T06:14:56.415Z,33.39
2022-08-09T06:17:39.778Z,34.69
2022-08-09T06:20:37.748Z,35.64
2022-08-09T06:23:07.899Z,36.04
2022-08-09T06:25:40.228Z,36.73
2022-08-09T06:28:10.226Z,36.09
2022-08-09T06:30:43.394Z,36.41
2022-08-09T06:33:30.388Z,36.41
2022-08-09T06:36:07.383Z,35.16
2022-08-09T06:38:47.331Z,35.18
2022-08-09T06:42:01.223Z,34.98
2022-08-09T06:44:21.686Z,36.18
2022-08-09T06:47:12.611Z,34.57
2022-08-09T06:50:13.505Z,35.94
2022-08-09T06:52:49.420Z,34.02
2022-08-09T06:55:57.256Z,34.57
2022-08-09T07:00:46.550Z,32.42
2022-08-09T07:04:48.052Z,35.75
2022-08-09T07:07:59.592Z,32.57
2022-08-09T07:10:14.285Z,32.22
2022-08-09T07:12:58.213Z,33.57
2022-08-09T07:16:38.627Z,33.26
2022-08-09T07:18:16.574Z,34.62
2022-08-09T07:20:47.826Z,33.76
2022-08-09T07:23:18.620Z,33.32
2022-08-09T07:25:48.092Z,32.44
2022-08-09T07:28:26.285Z,33.49
2022-08-09T07:30:55.499Z,33.96
2022-08-09T07:33:22.456Z,36.01
2022-08-09T07:35:54.212Z,36.30
2022-08-09T07:38:23.214Z,36.07
2022-08-09T07:41:00.961Z,34.14
2022-08-09T07:43:49.868Z,36.25
2022-08-09T07:46:22.433Z,33.78
2022-08-09T07:48:59.308Z,34.07
2022-08-09T07:52:04.613Z,34.22
2022-08-09T07:54:14.333Z,34.14
2022-08-09T07:56:48.660Z,34.62
2022-08-09T07:59:24.915Z,33.12
2022-08-09T08:01:55.986Z,34.25
2022-08-09T08:04:31.749Z,33.30
2022-08-09T08:07:15.551Z,32.94
2022-08-09T08:09:55.080Z,34.13
2022-08-09T08:12:43.184Z,33.85
2022-08-09T08:15:14.269Z,34.05
2022-08-09T08:17:53.941Z,33.60
2022-08-09T08:20:28.965Z,33.66
2022-08-09T08:23:03.693Z,34.87
2022-08-09T08:25:46.405Z,34.96
2022-08-09T08:28:18.421Z,34.60
2022-08-09T08:30:58.680Z,32.84
2022-08-09T08:33:25.420Z,32.59
2022-08-09T08:35:59.327Z,31.67
2022-08-09T08:38:29.617Z,32.19
2022-08-09T08:41:01.827Z,31.63
2022-08-09T08:43:33.248Z,30.96
2022-08-09T08:46:32.055Z,30.44
2022-08-09T08:48:54.009Z,29.08
2022-08-09T08:51:24.024Z,29.49
2022-08-09T08:54:03.640Z,29.27
2022-08-09T08:56:41.851Z,29.01
2022-08-09T08:59:19.465Z,29.01
2022-08-09T09:01:52.181Z,28.49
2022-08-09T09:04:26.982Z,28.39
2022-08-09T09:07:00.796Z,28.50
2022-08-09T09:10:02.067Z,28.38
2022-08-09T09:12:20.513Z,28.09
2022-08-09T09:14:49.975Z,28.51
2022-08-09T09:17:18.739Z,28.46
2022-08-09T09:19:47.750Z,28.67
2022-08-09T09:22:17.454Z,28.93
2022-08-09T09:26:02.599Z,28.78
2022-08-09T09:28:05.245Z,28.93
2022-08-09T09:30:41.065Z,29.25
2022-08-09T09:33:17.909Z,28.55
2022-08-09T09:36:01.329Z,29.45
2022-08-09T09:38:49.488Z,29.63
2022-08-09T09:41:33.304Z,29.69
2022-08-09T09:44:25.720Z,29.11
2022-08-09T09:47:08.579Z,29.46
2022-08-09T09:50:06.811Z,29.50
2022-08-09T09:52:35.957Z,29.39
2022-08-09T09:55:23.927Z,29.91
2022-08-09T09:58:17.376Z,30.14
2022-08-09T10:00:59.126Z,29.98
2022-08-09T10:03:57.130Z,29.25
2022-08-09T10:06:25.487Z,29.66
2022-08-09T10:09:00.733Z,30.05
2022-08-09T10:11:59.037Z,29.69
2022-08-09T10:14:30.276Z,29.41
2022-08-09T10:17:40.304Z,29.25
2022-08-09T10:19:57.233Z,29.57
2022-08-09T10:22:33.619Z,29.25
2022-08-09T10:25:14.467Z,28.55
2022-08-09T10:27:56.741Z,28.63
2022-08-09T10:32:13.259Z,27.68
2022-08-09T10:33:29.959Z,28.17
2022-08-09T10:36:11.572Z,28.74
2022-08-09T10:38:56.252Z,29.07
2022-08-09T10:41:24.260Z,29.24
2022-08-09T10:43:59.211Z,29.26
2022-08-09T10:46:57.671Z,29.05
2022-08-09T10:49:51.260Z,27.98
2022-08-09T10:52:29.542Z,28.02
2022-08-09T10:55:24.218Z,28.13
2022-08-09T10:57:55.504Z,28.38
2022-08-09T11:00:34.363Z,28.22
2022-08-09T11:03:16.209Z,28.89
2022-08-09T11:06:16.018Z,29.52
2022-08-09T11:08:51.089Z,29.44
2022-08-09T11:11:20.602Z,29.05
2022-08-09T11:14:09.273Z,28.86
2022-08-09T11:16:43.401Z,29.57
2022-08-09T11:19:13.795Z,29.99
2022-08-09T11:22:16.751Z,30.00
2022-08-09T11:24:57.849Z,29.33
2022-08-09T11:28:04.036Z,29.32
2022-08-09T11:30:34.320Z,28.73
2022-08-09T11:33:06.046Z,28.97
2022-08-09T11:35:55.468Z,29.29
2022-08-09T11:38:33.200Z,28.82
2022-08-09T11:41:14.238Z,28.43
2022-08-09T11:43:52.843Z,27.85
2022-08-09T11:46:32.894Z,27.46
2022-08-09T11:49:05.450Z,27.45
2022-08-09T11:53:00.750Z,27.00
2022-08-09T11:55:52.020Z,27.00
2022-08-09T11:58:14.819Z,26.41
2022-08-09T12:00:53.078Z,26.98
2022-08-09T12:03:55.562Z,27.92
2022-08-09T12:06:17.624Z,27.81
2022-08-09T12:08:55.826Z,27.96
2022-08-09T12:11:26.646Z,28.63
2022-08-09T12:14:07.602Z,28.32
2022-08-09T12:16:43.136Z,28.03
2022-08-09T12:19:14.083Z,27.75
2022-08-09T12:21:50.437Z,27.56
2022-08-09T12:24:25.190Z,27.15
2022-08-09T12:29:14.711Z,27.02
2022-08-09T12:30:01.725Z,27.45
2022-08-09T12:32:44.636Z,27.66
2022-08-09T12:35:13.382Z,27.44
2022-08-09T12:37:51.517Z,27.68
2022-08-09T12:40:21.278Z,27.92
2022-08-09T12:42:50.956Z,28.40
2022-08-09T12:45:32.812Z,28.70
2022-08-09T12:48:07.906Z,28.77
2022-08-09T12:50:47.050Z,28.58
2022-08-09T12:53:44.911Z,29.14
2022-08-09T12:56:39.241Z,28.86
2022-08-09T12:59:14.302Z,28.40
2022-08-09T13:01:48.749Z,28.43
2022-08-09T13:04:35.826Z,28.32
2022-08-09T13:07:19.595Z,28.64
2022-08-09T13:09:55.181Z,29.12
2022-08-09T13:12:26.862Z,28.68
2022-08-09T13:15:04.638Z,28.93
2022-08-09T13:18:03.177Z,28.76
2022-08-09T13:21:04.228Z,28.78
2022-08-09T13:24:16.602Z,28.65
2022-08-09T13:26:50.076Z,28.50
2022-08-09T13:29:18.570Z,27.86
2022-08-09T13:32:17.898Z,27.46
2022-08-09T13:34:52.452Z,27.24
2022-08-09T13:37:24.729Z,27.42
2022-08-09T13:41:55.281Z,27.58
2022-08-09T13:42:55.777Z,28.24
2022-08-09T13:45:32.143Z,28.43
2022-08-09T13:48:10.643Z,28.35
2022-08-09T13:50:40.758Z,28.05
2022-08-09T13:53:08.151Z,28.08
2022-08-09T13:55:37.139Z,27.96
2022-08-09T13:58:05.237Z,27.84
2022-08-09T14:00:46.700Z,28.22
2022-08-09T14:04:03.767Z,28.52
2022-08-09T14:06:03.410Z,28.16
2022-08-09T14:08:39.487Z,27.91
2022-08-09T14:11:16.367Z,27.68
2022-08-09T14:14:22.195Z,27.07
2022-08-09T14:16:32.305Z,27.28
2022-08-09T14:19:01.633Z,27.81
2022-08-09T14:21:29.411Z,27.92
2022-08-09T14:24:05.454Z,28.06
2022-08-09T14:26:38.617Z,28.05
2022-08-09T14:30:04.172Z,27.96
2022-08-09T14:31:55.230Z,28.07
2022-08-09T14:34:34.476Z,27.89
2022-08-09T14:37:06.534Z,27.46
2022-08-09T14:39:40.461Z,26.71
2022-08-09T14:42:38.963Z,26.28
2022-08-09T14:46:45.901Z,26.06
2022-08-09T14:47:57.408Z,26.01
2022-08-09T14:50:27.578Z,25.83
2022-08-09T14:52:55.004Z,25.98
2022-08-09T14:55:21.779Z,26.07
2022-08-09T14:57:50.291Z,26.03
2022-08-09T15:00:17.735Z,26.21
2022-08-09T15:02:47.338Z,25.95
2022-08-09T15:05:16.135Z,26.05
2022-08-09T15:07:45.545Z,26.22
2022-08-09T15:10:24.803Z,26.26
2022-08-09T15:12:52.734Z,26.30
2022-08-09T15:15:20.353Z,26.25
2022-08-09T15:17:52.383Z,26.34
2022-08-09T15:21:55.797Z,26.15
2022-08-09T15:24:03.138Z,26.08
2022-08-09T15:25:55.654Z,26.17
2022-08-09T15:28:28.284Z,26.04
2022-08-09T15:31:10.229Z,25.86
2022-08-09T15:34:15.472Z,26.03
2022-08-09T15:36:30.314Z,25.92
2022-08-09T15:39:01.521Z,26.10
2022-08-09T15:41:31.354Z,26.16
2022-08-09T15:44:19.736Z,26.19
2022-08-09T15:46:49.598Z,26.15
2022-08-09T15:49:22.114Z,25.94
2022-08-09T15:52:05.246Z,26.01
2022-08-09T15:54:49.028Z,26.08
2022-08-09T15:57:36.013Z,26.09
2022-08-09T16:00:14.084Z,26.02
2022-08-09T16:02:54.058Z,25.99
2022-08-09T16:05:23.802Z,25.95
2022-08-09T16:07:51.052Z,25.83
2022-08-09T16:10:54.997Z,25.83
2022-08-09T16:13:21.154Z,25.67
2022-08-09T16:16:10.393Z,25.73
2022-08-09T16:18:44.650Z,25.67
2022-08-09T16:21:17.224Z,25.60
2022-08-09T16:23:55.432Z,25.57
2022-08-09T16:26:35.186Z,25.58
2022-08-09T16:29:20.383Z,25.58
2022-08-09T16:32:19.621Z,25.50
2022-08-09T16:34:56.889Z,25.42
2022-08-09T16:37:55.328Z,25.42
2022-08-09T16:40:29.781Z,25.17
2022-08-09T16:43:02.371Z,25.21
2022-08-09T16:45:29.221Z,25.09
2022-08-09T16:48:39.115Z,24.93
2022-08-09T16:50:49.629Z,24.88
2022-08-09T16:53:26.788Z,24.81
2022-08-09T16:56:03.562Z,24.57
2022-08-09T16:58:36.750Z,24.52
2022-08-09T17:01:06.236Z,24.48
2022-08-09T17:03:34.723Z,24.50
2022-08-09T17:06:06.853Z,24.39
2022-08-09T17:09:01.446Z,24.26
2022-08-09T17:11:40.542Z,24.05
2022-08-09T17:14:25.467Z,23.77
2022-08-09T17:17:01.500Z,23.64
2022-08-09T17:19:47.128Z,23.48
2022-08-09T17:22:35.671Z,23.27
2022-08-09T17:25:11.620Z,23.13
2022-08-09T17:27:48.834Z,23.06
2022-08-09T17:30:16.870Z,23.01
2022-08-09T17:32:47.885Z,22.80
2022-08-09T17:35:16.281Z,22.64
2022-08-09T17:38:12.745Z,22.69
2022-08-09T17:40:36.196Z,22.63
2022-08-09T17:43:33.212Z,22.50
2022-08-09T17:46:03.322Z,22.13
2022-08-09T17:48:34.019Z,21.90
2022-08-09T17:51:09.004Z,21.82
2022-08-09T17:53:43.298Z,21.85
2022-08-09T17:56:15.100Z,21.81
2022-08-09T17:58:45.412Z,21.81
2022-08-09T18:01:22.144Z,21.89
2022-08-09T18:03:49.557Z,21.73
2022-08-09T18:06:32.046Z,21.69
2022-08-09T18:09:03.125Z,21.32
2022-08-09T18:11:46.790Z,21.24
2022-08-09T18:14:21.173Z,21.15
2022-08-09T18:16:49.586Z,21.11
2022-08-09T18:20:55.889Z,21.10
2022-08-09T18:22:13.193Z,21.04
2022-08-09T18:24:46.354Z,20.79
2022-08-09T18:27:33.652Z,20.81
2022-08-09T18:30:35.148Z,20.78
2022-08-09T18:32:54.545Z,20.62
2022-08-09T18:35:48.030Z,20.50
2022-08-09T18:38:12.633Z,20.21
2022-08-09T18:40:40.112Z,20.14
2022-08-09T18:43:08.949Z,20.20
2022-08-09T18:46:46.643Z,20.07
2022-08-09T18:48:30.426Z,20.11
2022-08-09T18:51:02.168Z,20.09
2022-08-09T18:53:36.774Z,20.00
2022-08-09T18:56:19.915Z,19.81
2022-08-09T18:58:55.500Z,19.73
2022-08-09T19:01:23.526Z,19.61
2022-08-09T19:04:00.914Z,19.48
2022-08-09T19:06:34.155Z,19.54
2022-08-09T19:09:02.453Z,19.47
2022-08-09T19:11:37.363Z,19.39
2022-08-09T19:14:06.639Z,19.37
2022-08-09T19:16:36.664Z,19.30
2022-08-09T19:19:21.488Z,19.32
2022-08-09T19:22:06.372Z,19.32
2022-08-09T19:25:07.444Z,19.25
2022-08-09T19:27:21.953Z,19.23
2022-08-09T19:30:25.305Z,19.18
2022-08-09T19:32:36.767Z,19.22
2022-08-09T19:44:01.784Z,19.06
2022-08-09T19:46:35.326Z,19.02
2022-08-09T19:50:07.709Z,19.03
2022-08-09T19:51:56.054Z,18.97
2022-08-09T19:54:29.755Z,18.90
2022-08-09T19:56:57.242Z,18.90
2022-08-09T19:59:58.587Z,18.79
2022-08-09T20:02:17.258Z,18.58
2022-08-09T20:05:01.440Z,18.52
2022-08-09T20:07:57.111Z,18.36
2022-08-09T20:10:22.415Z,18.34
2022-08-09T20:12:54.962Z,18.33
2022-08-09T20:16:37.626Z,18.31
2022-08-09T20:18:10.594Z,18.28
2022-08-09T20:20:39.131Z,18.28
2022-08-09T20:23:06.900Z,18.09
2022-08-09T20:25:51.340Z,18.14
2022-08-09T20:28:27.774Z,18.12
2022-08-09T20:31:05.006Z,18.03
2022-08-09T20:33:39.237Z,18.00
2022-08-09T20:36:09.083Z,17.89
2022-08-09T20:39:07.177Z,17.87
2022-08-09T20:41:32.020Z,17.77
2022-08-09T20:44:02.821Z,17.84
2022-08-09T20:46:43.302Z,17.78
2022-08-09T20:49:16.092Z,17.68
2022-08-09T20:51:44.403Z,17.75
2022-08-09T20:54:12.929Z,17.78
2022-08-09T20:56:53.478Z,17.77
2022-08-09T20:59:50.264Z,17.70
2022-08-09T21:02:10.840Z,17.65
2022-08-09T21:05:54.696Z,17.69
2022-08-09T21:07:38.516Z,17.68
2022-08-09T21:10:06.105Z,17.65
2022-08-09T21:12:37.006Z,17.66
2022-08-09T21:15:05.353Z,17.60
2022-08-09T21:18:20.931Z,17.47
2022-08-09T21:20:26.697Z,17.53
2022-08-09T21:22:57.357Z,17.48
2022-08-09T21:25:43.990Z,17.45
2022-08-09T21:28:34.950Z,17.41
2022-08-09T21:31:17.212Z,17.42
2022-08-09T21:33:57.007Z,17.42
2022-08-09T21:36:28.752Z,17.36
2022-08-09T21:38:59.237Z,17.34
2022-08-09T21:42:04.148Z,17.31
2022-08-09T21:44:32.983Z,17.26
2022-08-09T21:47:08.865Z,17.18
2022-08-09T21:49:42.955Z,17.06
2022-08-09T21:52:14.743Z,17.09
2022-08-09T21:54:46.233Z,16.93
2022-08-09T21:57:37.137Z,17.03
2022-08-09T22:00:06.825Z,17.18
2022-08-09T22:02:36.320Z,17.23
2022-08-09T22:05:17.143Z,17.30
2022-08-09T22:07:52.224Z,17.32
2022-08-09T22:10:22.821Z,17.20
2022-08-09T22:12:50.218Z,17.09
2022-08-09T22:15:17.083Z,16.94
2022-08-09T22:17:44.788Z,16.99
2022-08-09T22:20:16.990Z,16.95
2022-08-09T22:22:49.439Z,16.95
2022-08-09T22:26:07.585Z,16.96
2022-08-09T22:28:08.599Z,16.89
2022-08-09T22:30:35.291Z,16.90
2022-08-09T22:33:09.253Z,16.88
2022-08-09T22:36:02.867Z,16.84
2022-08-09T22:38:24.592Z,16.79
2022-08-09T22:40:57.792Z,16.76
2022-08-09T22:44:01.666Z,16.50
2022-08-09T22:48:11.598Z,16.20
2022-08-09T22:49:01.944Z,16.23
2022-08-09T22:51:39.425Z,16.20
2022-08-09T22:54:12.784Z,16.25
2022-08-09T22:56:41.522Z,16.22
2022-08-09T22:59:56.001Z,16.21
2022-08-09T23:01:56.134Z,16.23
2022-08-09T23:04:25.478Z,16.28
2022-08-09T23:07:14.193Z,16.25
2022-08-09T23:09:44.345Z,16.20
2022-08-09T23:12:11.069Z,16.22
2022-08-09T23:14:42.248Z,16.20
2022-08-09T23:17:10.591Z,16.13
2022-08-09T23:20:06.715Z,16.06
2022-08-09T23:22:27.590Z,16.09
2022-08-09T23:24:54.342Z,16.04
2022-08-09T23:27:21.084Z,16.07
2022-08-09T23:29:47.745Z,16.01
2022-08-09T23:32:14.506Z,16.03
2022-08-09T23:34:41.189Z,16.03
2022-08-09T23:37:08.154Z,15.95
2022-08-09T23:39:35.022Z,15.81
2022-08-09T23:42:02.038Z,15.89
2022-08-09T23:44:28.721Z,15.92
2022-08-09T23:46:57.328Z,15.90
2022-08-09T23:49:25.896Z,15.68
2022-08-09T23:51:53.632Z,15.89
2022-08-09T23:54:26.449Z,15.77
2022-08-09T23:56:55.858Z,15.73
2022-08-09T23:59:26.026Z,15.73
